Time;durP1;ratioP1;P1;durP2;ratioP2;P2;SDS_P1;SDS_P2;PMS_P1;PMS_P2;Temp;Humidity;BMP_temperature;BMP_pressure;BME280_temperature;BME280_humidity;BME280_pressure;Samples;Min_cycle;Max_cycle;Signal;HPM_P1;HPM_P2
2022/09/21 00:00:00;;;;;;;20.33;11.82;;;;;;;9.93;84.66;99549.75;5082454;28;20703;-69
2022/09/21 00:02:27;;;;;;;18.63;11.80;;;;;;;9.90;84.29;99554.97;5083963;28;20024;-68
2022/09/21 00:04:53;;;;;;;23.45;11.43;;;;;;;9.91;84.10;99556.66;5083722;28;20040;-69
2022/09/21 00:07:18;;;;;;;17.50;11.23;;;;;;;9.84;84.37;99550.75;5082482;28;20077;-68
2022/09/21 00:09:44;;;;;;;20.48;10.10;;;;;;;9.86;84.28;99550.72;5084219;28;20093;-69
2022/09/21 00:12:10;;;;;;;15.80;10.60;;;;;;;9.87;84.55;99551.59;5083308;28;20043;-69
2022/09/21 00:14:36;;;;;;;20.52;11.10;;;;;;;9.87;84.72;99549.84;5083721;28;20051;-67
2022/09/21 00:17:01;;;;;;;20.80;10.10;;;;;;;9.82;84.08;99549.13;5095859;28;20044;-67
2022/09/21 00:19:27;;;;;;;18.58;10.18;;;;;;;9.80;84.37;99553.44;5085300;28;20043;-67
2022/09/21 00:21:54;;;;;;;15.75;10.57;;;;;;;9.70;84.77;99542.44;5085985;28;20300;-67
2022/09/21 00:24:19;;;;;;;18.38;10.48;;;;;;;9.76;84.89;99547.50;5085107;28;20377;-68
2022/09/21 00:26:45;;;;;;;15.68;9.60;;;;;;;9.75;84.80;99552.69;5101201;28;20035;-67
2022/09/21 00:29:12;;;;;;;16.00;8.73;;;;;;;9.80;84.15;99549.13;5079077;28;20031;-67
2022/09/21 00:31:38;;;;;;;16.52;9.90;;;;;;;9.79;83.94;99551.72;5085053;28;20125;-67
2022/09/21 00:34:06;;;;;;;16.40;9.38;;;;;;;9.75;84.56;99550.97;5102827;28;20044;-67
2022/09/21 00:36:32;;;;;;;13.55;9.20;;;;;;;9.70;84.59;99557.94;5085442;28;20028;-67
2022/09/21 00:39:00;;;;;;;15.95;8.80;;;;;;;9.68;85.04;99559.72;5102399;28;20052;-66
2022/09/21 00:41:29;;;;;;;16.58;9.02;;;;;;;9.66;84.70;99551.13;5103368;28;20027;-68
2022/09/21 00:44:26;;;;;;;15.13;9.52;;;;;;;9.72;84.47;99561.38;5085355;28;20020;-68
2022/09/21 00:46:55;;;;;;;14.60;8.60;;;;;;;9.65;85.09;99554.63;5085063;28;20024;-67
2022/09/21 00:49:22;;;;;;;15.18;8.95;;;;;;;9.72;84.44;99556.19;5085332;28;20039;-67
2022/09/21 00:51:50;;;;;;;13.75;9.20;;;;;;;9.75;84.22;99563.91;5103409;28;20292;-67
2022/09/21 00:54:25;;;;;;;12.88;9.07;;;;;;;9.62;84.59;99544.31;5102639;28;20040;-68
2022/09/21 00:56:51;;;;;;;13.27;8.35;;;;;;;9.72;84.47;99558.78;5085069;28;20030;-68
2022/09/21 00:59:19;;;;;;;15.50;8.77;;;;;;;9.64;84.35;99553.75;5103087;28;20055;-67
2022/09/21 01:01:45;;;;;;;15.25;9.20;;;;;;;9.67;84.28;99558.00;5103171;28;20065;-67
2022/09/21 01:04:12;;;;;;;10.88;7.47;;;;;;;9.61;84.29;99552.97;5102776;28;20087;-66
2022/09/21 01:06:40;;;;;;;12.82;8.00;;;;;;;9.65;84.31;99544.28;5103041;28;20035;-67
2022/09/21 01:09:06;;;;;;;13.90;9.00;;;;;;;9.68;83.96;99551.97;5103017;28;20032;-67
2022/09/21 01:11:40;;;;;;;14.75;8.70;;;;;;;9.63;84.74;99554.66;5102972;28;20035;-67
2022/09/21 01:14:08;;;;;;;14.50;8.70;;;;;;;9.54;84.97;99556.56;5102659;28;20247;-67
2022/09/21 01:17:02;;;;;;;13.27;7.90;;;;;;;9.49;85.35;99560.09;5102554;28;20340;-67
2022/09/21 01:19:40;;;;;;;11.57;8.48;;;;;;;9.45;84.46;99544.69;5103044;28;20103;-67
2022/09/21 01:22:26;;;;;;;11.88;7.93;;;;;;;9.55;84.19;99558.25;5102629;28;20040;-66
2022/09/21 01:25:28;;;;;;;16.40;8.40;;;;;;;9.56;85.02;99557.38;5084675;28;20053;-67
2022/09/21 01:28:19;;;;;;;15.45;8.23;;;;;;;9.59;84.75;99559.91;5102528;28;20189;-67
2022/09/21 01:30:49;;;;;;;15.50;7.55;;;;;;;9.55;84.29;99551.38;5102512;28;20031;-67
2022/09/21 01:33:39;;;;;;;16.48;8.30;;;;;;;9.60;84.25;99561.59;5102548;28;20036;-67
2022/09/21 01:36:11;;;;;;;15.48;7.90;;;;;;;9.57;84.28;99551.34;5084551;28;20385;-67
2022/09/21 01:38:42;;;;;;;13.75;8.70;;;;;;;9.55;84.25;99555.66;5084943;28;20029;-67
2022/09/21 01:41:11;;;;;;;13.18;8.75;;;;;;;9.56;84.96;99560.78;5102357;28;20052;-66
2022/09/21 01:43:41;;;;;;;12.48;7.88;;;;;;;9.50;84.77;99554.03;5102276;28;20028;-66
2022/09/21 01:46:13;;;;;;;15.63;8.73;;;;;;;9.54;84.29;99551.41;5102482;28;20099;-66
2022/09/21 01:48:43;;;;;;;13.93;8.60;;;;;;;9.51;85.03;99554.88;5102452;28;20028;-66
2022/09/21 01:51:13;;;;;;;10.23;8.55;;;;;;;9.54;85.08;99562.56;5106146;28;20024;-67
2022/09/21 01:54:02;;;;;;;12.90;8.75;;;;;;;9.57;84.25;99570.25;5106737;28;20036;-67
2022/09/21 01:56:50;;;;;;;16.05;8.60;;;;;;;9.47;84.35;99554.06;5068224;28;20231;-68
2022/09/21 01:59:42;;;;;;;12.05;8.45;;;;;;;9.40;85.18;99549.91;5086372;28;20032;-68
2022/09/21 02:02:12;;;;;;;;;;;;;;;9.41;85.08;99572.28;5088193;28;20132;-67
2022/09/21 02:04:38;;;;;;;12.43;7.90;;;;;;;9.42;85.60;99568.84;5106230;28;19946;-68
2022/09/21 02:07:05;;;;;;;16.08;8.90;;;;;;;9.42;84.76;99574.00;5106255;28;20024;-69
2022/09/21 02:09:33;;;;;;;17.10;8.57;;;;;;;9.42;85.54;99558.50;5106119;28;20105;-69
2022/09/21 02:12:01;;;;;;;12.48;8.43;;;;;;;9.44;85.34;99566.22;5105961;28;20020;-69
2022/09/21 02:14:28;;;;;;;12.52;8.52;;;;;;;9.40;85.12;99565.41;5088132;28;20339;-69
2022/09/21 02:17:06;;;;;;;16.02;9.25;;;;;;;9.40;85.30;99568.00;5106013;28;20035;-66
2022/09/21 02:19:45;;;;;;;12.82;8.20;;;;;;;9.38;84.65;99571.47;5106052;28;20043;-67
2022/09/21 02:22:23;;;;;;;13.15;8.23;;;;;;;9.36;85.65;99578.44;5105976;28;20036;-66
2022/09/21 02:25:12;;;;;;;9.70;8.05;;;;;;;9.44;85.47;99587.75;5105935;28;20090;-67
2022/09/21 02:28:01;;;;;;;12.02;8.15;;;;;;;9.43;84.75;99586.03;5106182;28;20047;-67
2022/09/21 02:30:27;;;;;;;13.55;8.68;;;;;;;9.32;84.82;99568.16;5105428;28;20016;-66
2022/09/21 02:33:16;;;;;;;12.05;8.70;;;;;;;9.38;85.52;99582.69;5105239;28;20086;-67
2022/09/21 02:35:53;;;;;;;10.50;8.40;;;;;;;9.30;85.20;99579.38;5106160;28;20046;-67
2022/09/21 02:38:38;;;;;;;10.93;8.27;;;;;;;9.29;85.47;99568.22;5083938;28;20324;-67
2022/09/21 02:41:15;;;;;;;12.32;9.05;;;;;;;9.29;84.99;99568.22;5096208;28;20040;-67
2022/09/21 02:44:05;;;;;;;13.60;8.48;;;;;;;9.35;85.31;99581.88;5100737;28;20031;-67
2022/09/21 02:46:41;;;;;;;13.32;8.43;;;;;;;9.27;85.10;99588.03;5073902;28;20086;-67
2022/09/21 02:49:12;;;;;;;13.45;8.13;;;;;;;9.29;85.09;99590.59;5095937;28;20320;-68
2022/09/21 02:51:46;;;;;;;12.98;8.55;;;;;;;9.23;85.89;99572.63;5067426;28;20299;-68
2022/09/21 02:54:16;;;;;;;13.05;8.13;;;;;;;9.27;85.55;99571.69;5069643;28;20138;-68
2022/09/21 02:56:43;;;;;;;10.93;8.43;;;;;;;9.33;85.39;99581.91;5087491;28;20095;-68
2022/09/21 02:59:09;;;;;;;10.88;8.50;;;;;;;9.27;85.60;99577.72;5105166;28;20024;-67
2022/09/21 03:01:38;;;;;;;12.65;8.93;;;;;;;9.32;85.15;99582.81;5104673;28;20032;-67
2022/09/21 03:04:03;;;;;;;14.15;9.13;;;;;;;9.32;85.15;99578.50;5105084;28;20020;-68
2022/09/21 03:06:30;;;;;;;13.25;8.43;;;;;;;9.31;85.55;99581.09;5070452;28;20024;-67
2022/09/21 03:08:57;;;;;;;13.95;8.70;;;;;;;9.35;85.31;99575.00;5105255;28;20048;-66
2022/09/21 03:11:24;;;;;;;14.25;8.73;;;;;;;9.37;84.74;99575.81;5105527;28;20047;-67
2022/09/21 03:13:50;;;;;;;13.68;8.57;;;;;;;9.38;85.22;99582.69;5087026;28;20028;-68
2022/09/21 03:16:15;;;;;;;14.30;8.82;;;;;;;9.39;85.93;99581.81;5086822;28;20047;-67
2022/09/21 03:18:42;;;;;;;12.77;9.48;;;;;;;9.38;85.63;99577.53;5105073;28;20039;-66
2022/09/21 03:21:09;;;;;;;12.93;8.55;;;;;;;9.38;85.79;99580.13;5105455;28;20044;-66
2022/09/21 03:23:35;;;;;;;14.70;9.32;;;;;;;9.39;85.53;99581.81;5105108;28;20024;-66
2022/09/21 03:26:01;;;;;;;11.88;8.32;;;;;;;9.36;85.43;99584.44;5105298;28;20035;-67
2022/09/21 03:28:27;;;;;;;13.52;9.68;;;;;;;9.40;85.60;99580.91;5104618;28;20061;-67
2022/09/21 03:30:52;;;;;;;13.45;9.55;;;;;;;9.41;86.48;99574.03;5086971;28;20020;-68
2022/09/21 03:33:19;;;;;;;11.43;8.95;;;;;;;9.42;85.88;99574.00;5104485;28;20027;-67
2022/09/21 03:35:47;;;;;;;12.55;9.00;;;;;;;9.41;85.87;99566.28;5086411;28;20030;-66
2022/09/21 03:38:12;;;;;;;12.05;7.90;;;;;;;9.52;85.64;99579.00;5104353;28;20059;-66
2022/09/21 03:40:38;;;;;;;12.45;9.15;;;;;;;9.50;86.26;99560.94;5103800;28;20255;-66
2022/09/21 03:43:03;;;;;;;13.68;8.77;;;;;;;9.56;86.39;99565.13;5094932;28;20032;-66
2022/09/21 03:45:29;;;;;;;14.65;9.50;;;;;;;9.58;87.20;99571.13;5071191;28;20069;-66
2022/09/21 03:48:00;;;;;;;12.63;8.57;;;;;;;9.56;86.73;99565.13;5104334;28;20129;-65
2022/09/21 03:50:29;;;;;;;15.73;9.63;;;;;;;9.65;87.28;99573.56;5086096;28;20035;-66
2022/09/21 03:52:55;;;;;;;16.52;9.85;;;;;;;9.68;87.27;99564.91;5103868;28;20105;-68
2022/09/21 03:55:21;;;;;;;14.95;10.05;;;;;;;9.72;87.00;99563.97;5103379;28;20039;-68
2022/09/21 03:57:47;;;;;;;15.80;10.07;;;;;;;9.79;87.86;99562.94;5103975;28;20024;-68
2022/09/21 04:00:13;;;;;;;18.25;10.55;;;;;;;9.80;87.40;99569.81;5104023;28;20047;-67
2022/09/21 04:02:40;;;;;;;16.02;9.45;;;;;;;9.87;87.28;99565.38;5086028;28;20095;-67
2022/09/21 04:05:08;;;;;;;14.60;9.40;;;;;;;9.88;87.99;99572.25;5065661;28;20033;-67
2022/09/21 04:07:34;;;;;;;14.63;10.00;;;;;;;9.91;87.81;99564.44;5079618;28;20032;-66
2022/09/21 04:10:03;;;;;;;13.13;9.85;;;;;;;9.95;88.15;99573.00;5104521;28;20128;-67
2022/09/21 04:12:30;;;;;;;14.10;10.35;;;;;;;9.99;88.39;99566.84;5086166;28;20331;-66
2022/09/21 04:14:55;;;;;;;16.92;10.40;;;;;;;10.04;88.38;99575.38;5104150;28;20060;-66
2022/09/21 04:17:21;;;;;;;16.05;11.10;;;;;;;10.11;88.14;99574.34;5103077;28;20047;-67
2022/09/21 04:19:47;;;;;;;15.45;10.05;;;;;;;10.16;88.39;99566.47;5103658;28;20114;-66
2022/09/21 04:22:13;;;;;;;18.85;10.52;;;;;;;10.18;88.86;99565.56;5104007;28;20069;-67
2022/09/21 04:24:42;;;;;;;17.77;10.65;;;;;;;10.23;89.46;99569.81;5103330;28;20046;-67
2022/09/21 04:27:10;;;;;;;16.15;10.63;;;;;;;10.31;89.26;99570.50;5103237;28;20039;-67
2022/09/21 04:29:36;;;;;;;22.80;11.60;;;;;;;10.40;89.50;99570.31;5085045;28;20190;-67
2022/09/21 04:32:02;;;;;;;16.73;11.02;;;;;;;10.49;89.18;99567.50;5102574;28;20039;-67
2022/09/21 04:34:29;;;;;;;17.98;12.45;;;;;;;10.50;89.94;99569.22;5090308;28;20085;-69
2022/09/21 04:36:57;;;;;;;13.30;10.68;;;;;;;10.60;89.96;99566.41;5090432;28;20032;-68
2022/09/21 04:39:23;;;;;;;15.20;10.77;;;;;;;10.68;89.06;99559.31;5103139;28;20064;-68
2022/09/21 04:41:49;;;;;;;16.00;10.15;;;;;;;10.74;88.99;99568.69;5102839;28;20027;-68
2022/09/21 04:44:17;;;;;;;15.52;10.50;;;;;;;10.84;89.01;99576.16;5102505;28;20032;-69
2022/09/21 04:46:43;;;;;;;14.27;11.55;;;;;;;10.83;89.65;99576.22;5064960;28;20028;-69
2022/09/21 04:49:09;;;;;;;16.30;11.50;;;;;;;10.75;89.73;99579.00;5078711;28;20031;-68
2022/09/21 04:51:35;;;;;;;13.68;10.60;;;;;;;10.71;89.57;99577.38;5103184;28;20106;-67
2022/09/21 04:54:02;;;;;;;15.80;9.95;;;;;;;10.76;89.48;99585.88;5084838;28;20023;-69
2022/09/21 04:56:27;;;;;;;12.82;11.13;;;;;;;10.87;88.86;99583.03;5085012;28;20087;-68
2022/09/21 04:58:53;;;;;;;16.23;10.32;;;;;;;10.93;88.89;99584.63;5085028;28;20057;-67
2022/09/21 05:01:19;;;;;;;13.48;10.52;;;;;;;10.94;88.81;99581.16;5084720;28;20035;-67
2022/09/21 05:03:45;;;;;;;14.95;10.98;;;;;;;10.94;88.50;99581.97;5102068;28;20054;-69
2022/09/21 05:06:12;;;;;;;15.05;10.45;;;;;;;10.98;88.63;99577.59;5101953;28;20028;-73
2022/09/21 05:11:23;;;;;;;16.17;11.10;;;;;;;11.05;88.87;99587.75;5102457;28;20146;-71
2022/09/21 05:13:49;;;;;;;13.80;10.20;;;;;;;11.13;88.17;99590.16;5084483;28;20133;-70
2022/09/21 05:16:16;;;;;;;14.95;11.77;;;;;;;11.20;88.24;99588.25;5102472;28;20035;-70
2022/09/21 05:18:43;;;;;;;14.85;10.65;;;;;;;11.26;87.65;99582.94;5103779;28;20036;-71
2022/09/21 05:21:11;;;;;;;15.40;10.27;;;;;;;11.25;87.92;99570.00;5102208;28;20028;-70
2022/09/21 05:23:37;;;;;;;13.93;9.98;;;;;;;11.34;88.13;99581.00;5102784;28;20023;-70
2022/09/21 05:26:03;;;;;;;11.93;9.55;;;;;;;11.31;87.83;99585.41;5101989;28;20220;-70
2022/09/21 05:28:29;;;;;;;13.77;9.40;;;;;;;11.40;87.68;99596.38;5102672;28;20036;-70
2022/09/21 05:31:03;;;;;;;12.38;10.15;;;;;;;11.38;88.31;99590.38;5102619;28;20028;-69
2022/09/21 05:33:32;;;;;;;14.30;9.43;;;;;;;11.49;87.83;99592.69;5102727;28;20032;-71
2022/09/21 05:36:01;;;;;;;12.23;10.05;;;;;;;11.46;88.01;99590.19;5084463;28;20091;-71
2022/09/21 05:38:26;;;;;;;15.45;10.05;;;;;;;11.48;87.50;99590.97;5102551;28;20031;-71
2022/09/21 05:40:52;;;;;;;17.40;10.63;;;;;;;11.49;88.05;99584.06;5102584;28;20028;-72
2022/09/21 05:43:18;;;;;;;11.52;8.93;;;;;;;11.52;88.20;99581.38;5102081;28;20046;-71
2022/09/21 05:45:56;;;;;;;9.73;8.73;;;;;;;11.51;87.66;99577.09;5102293;28;20444;-72
2022/09/21 05:48:39;;;;;;;9.85;8.18;;;;;;;11.33;88.13;99568.91;5084297;28;20028;-72
2022/09/21 05:51:54;;;;;;;10.43;8.80;;;;;;;11.52;87.58;99574.44;5101950;28;20028;-70
2022/09/21 05:54:46;;;;;;;14.48;8.90;;;;;;;11.68;87.67;99572.28;5097154;28;20081;-71
2022/09/21 05:57:26;;;;;;;11.00;7.60;;;;;;;11.80;86.40;99571.09;5063634;28;20036;-71
2022/09/21 06:00:15;;;;;;;10.25;7.70;;;;;;;11.77;86.77;99565.13;5110720;28;20031;-70
2022/09/21 06:03:13;;;;;;;9.10;7.72;;;;;;;11.99;86.88;99573.19;5081884;28;20089;-70
2022/09/21 06:05:40;;;;;;;13.23;8.15;;;;;;;11.89;86.47;99576.00;5060164;28;20048;-70
2022/09/21 06:08:05;;;;;;;10.13;7.22;;;;;;;11.86;86.31;99572.66;5098379;28;20024;-71
2022/09/21 06:10:33;;;;;;;11.65;7.22;;;;;;;11.99;85.11;99576.63;5067031;28;20043;-70
2022/09/21 06:12:59;;;;;;;8.60;7.32;;;;;;;12.05;85.25;99575.59;5102036;28;20051;-71
2022/09/21 06:15:25;;;;;;;10.70;7.85;;;;;;;12.27;84.65;99578.44;5066925;28;20032;-70
2022/09/21 06:17:50;;;;;;;8.48;6.88;;;;;;;12.33;84.76;99569.59;5083936;28;20370;-71
2022/09/21 06:20:16;;;;;;;7.88;6.95;;;;;;;12.35;83.82;99575.59;5102198;28;20032;-71
2022/09/21 06:22:42;;;;;;;8.82;7.60;;;;;;;12.39;82.75;99577.19;5083900;28;20047;-70
2022/09/21 06:25:08;;;;;;;15.98;7.90;;;;;;;12.19;83.31;99572.59;5084045;28;20589;-71
2022/09/21 06:27:34;;;;;;;10.38;7.65;;;;;;;12.13;84.00;99577.97;5102483;28;20020;-69
2022/09/21 06:30:00;;;;;;;9.52;7.45;;;;;;;12.15;83.31;99584.81;5102301;28;20052;-71
2022/09/21 06:32:25;;;;;;;10.75;8.55;;;;;;;12.29;83.97;99580.97;5101812;28;20099;-72
2022/09/21 06:34:51;;;;;;;15.88;8.65;;;;;;;12.30;83.76;99580.94;5083704;28;20032;-72
2022/09/21 06:37:17;;;;;;;10.27;8.65;;;;;;;12.60;82.16;99591.28;5085843;28;20137;-72
2022/09/21 06:39:43;;;;;;;10.93;8.10;;;;;;;12.91;81.73;99580.75;5087331;28;20347;-72
2022/09/21 06:42:08;;;;;;;9.05;7.28;;;;;;;13.07;80.51;99585.44;5105147;28;20485;-72
2022/09/21 06:44:34;;;;;;;12.13;8.60;;;;;;;13.06;80.66;99596.72;5104975;28;20031;-71
2022/09/21 06:46:59;;;;;;;9.80;8.07;;;;;;;12.84;81.18;99584.44;5080688;28;20031;-70
2022/09/21 06:49:27;;;;;;;10.40;8.27;;;;;;;12.94;81.51;99588.44;5096302;28;20077;-71
2022/09/21 06:51:54;;;;;;;10.70;8.57;;;;;;;12.90;81.28;99576.44;5086928;28;20323;-70
2022/09/21 06:54:20;;;;;;;10.68;8.75;;;;;;;12.72;81.74;99584.81;5087210;28;20024;-70
2022/09/21 06:56:46;;;;;;;13.82;9.52;;;;;;;12.88;81.63;99587.78;5086930;28;20058;-70
2022/09/21 06:59:11;;;;;;;12.88;8.30;;;;;;;13.01;81.24;99583.91;5104688;28;20043;-70
2022/09/21 07:01:37;;;;;;;11.73;8.93;;;;;;;12.84;81.06;99588.78;5087470;28;20069;-71
2022/09/21 07:04:03;;;;;;;11.50;8.88;;;;;;;12.66;81.46;99591.06;5105027;28;20093;-71
2022/09/21 07:06:29;;;;;;;12.93;9.45;;;;;;;12.73;81.24;99586.53;5070103;28;20370;-71
2022/09/21 07:08:55;;;;;;;11.75;8.55;;;;;;;12.83;81.44;99585.34;5111025;28;20039;-70
2022/09/21 07:11:22;;;;;;;12.02;9.27;;;;;;;12.84;81.65;99587.03;5114660;28;20098;-70
2022/09/21 07:13:48;;;;;;;13.07;9.55;;;;;;;12.77;81.87;99580.34;5114913;28;20062;-70
2022/09/21 07:16:14;;;;;;;11.68;8.85;;;;;;;12.96;80.96;99588.38;5115057;28;20099;-70
2022/09/21 07:18:41;;;;;;;11.35;8.65;;;;;;;13.08;81.88;99598.38;5115143;28;20200;-70
2022/09/21 07:21:09;;;;;;;12.00;8.98;;;;;;;13.04;81.08;99590.72;5086678;28;20024;-71
2022/09/21 07:23:35;;;;;;;14.00;9.15;;;;;;;13.12;81.04;99594.78;5093240;28;20022;-71
2022/09/21 07:26:04;;;;;;;11.13;9.68;;;;;;;12.94;80.27;99579.78;5096508;28;20223;-69
2022/09/21 07:28:30;;;;;;;9.52;8.38;;;;;;;13.24;81.04;99590.91;5113418;28;20087;-69
2022/09/21 07:30:57;;;;;;;11.93;8.82;;;;;;;13.47;80.93;99594.50;5116857;28;20032;-72
2022/09/21 07:33:23;;;;;;;9.07;8.18;;;;;;;13.45;80.08;99591.09;5109389;28;20115;-70
2022/09/21 07:35:53;;;;;;;8.63;7.70;;;;;;;13.48;80.96;99584.94;5086483;28;20024;-71
2022/09/21 07:38:19;;;;;;;9.93;7.88;;;;;;;13.71;80.36;99584.13;5104545;28;20121;-71
2022/09/21 07:40:45;;;;;;;9.15;7.13;;;;;;;13.80;78.78;99589.00;5109582;28;20045;-72
2022/09/21 07:43:10;;;;;;;8.15;6.60;;;;;;;13.65;78.15;99598.19;5086617;28;20192;-72
2022/09/21 07:45:36;;;;;;;7.13;6.43;;;;;;;13.63;78.44;99600.03;5085904;28;20028;-70
2022/09/21 07:48:05;;;;;;;7.40;6.32;;;;;;;13.51;77.61;99585.69;5103521;28;20032;-73
2022/09/21 07:50:33;;;;;;;6.68;6.05;;;;;;;13.83;77.51;99588.88;5103458;28;20208;-72
2022/09/21 07:52:59;;;;;;;6.75;6.00;;;;;;;13.83;77.69;99594.09;5086097;28;20055;-72
2022/09/21 07:55:26;;;;;;;7.53;6.18;;;;;;;13.96;77.49;99582.31;5086090;28;20216;-72
2022/09/21 08:00:36;;;;;;;10.63;7.65;;;;;;;13.88;77.67;99584.38;5104360;28;20154;-73
2022/09/21 08:03:02;;;;;;;9.43;7.18;;;;;;;13.86;78.03;99588.78;5104017;28;20040;-73
2022/09/21 08:05:27;;;;;;;7.82;6.60;;;;;;;13.92;77.58;99585.97;5085844;28;20024;-72
2022/09/21 08:07:57;;;;;;;7.47;5.50;;;;;;;13.97;77.57;99581.41;5086245;28;20028;-72
2022/09/21 08:10:27;;;;;;;5.25;4.57;;;;;;;14.01;76.79;99581.28;5103533;28;20043;-72
2022/09/21 08:12:53;;;;;;;7.93;4.97;;;;;;;14.13;76.55;99578.25;5104013;28;20036;-72
2022/09/21 08:15:20;;;;;;;5.40;4.90;;;;;;;14.17;76.04;99584.19;5103948;28;20075;-72
2022/09/21 08:17:45;;;;;;;6.32;5.72;;;;;;;14.12;76.85;99586.94;5104020;28;20049;-71
2022/09/21 08:20:12;;;;;;;7.75;5.40;;;;;;;14.28;76.10;99580.28;5085553;28;20125;-71
2022/09/21 08:22:39;;;;;;;9.85;6.03;;;;;;;14.23;77.02;99584.78;5103854;28;20019;-69
2022/09/21 08:25:05;;;;;;;9.35;6.47;;;;;;;14.04;76.68;99581.19;5103573;28;20311;-71
2022/09/21 08:27:30;;;;;;;6.45;5.80;;;;;;;14.14;76.86;99579.94;5085664;28;20035;-72
2022/09/21 08:29:56;;;;;;;8.30;6.20;;;;;;;14.26;76.39;99578.63;5085814;28;20301;-71
2022/09/21 08:32:22;;;;;;;8.05;6.00;;;;;;;14.23;77.03;99574.38;5103696;28;20051;-71
2022/09/21 08:34:48;;;;;;;5.47;4.97;;;;;;;14.07;74.85;99586.28;5103210;28;20042;-71
2022/09/21 08:37:14;;;;;;;7.85;5.32;;;;;;;13.93;75.38;99582.44;5085006;28;20224;-72
2022/09/21 08:39:40;;;;;;;8.15;5.43;;;;;;;14.03;75.41;99576.91;5103082;28;20088;-71
2022/09/21 08:42:19;;;;;;;5.80;5.00;;;;;;;14.09;74.05;99580.09;5068227;28;20035;-71
2022/09/21 08:44:53;;;;;;;5.15;4.65;;;;;;;13.98;74.52;99577.09;5065919;28;20083;-70
2022/09/21 08:47:23;;;;;;;7.07;4.70;;;;;;;13.85;74.03;99573.22;5082454;28;20246;-71
2022/09/21 08:49:54;;;;;;;5.13;4.22;;;;;;;13.94;74.88;99552.06;5103312;28;20083;-72
2022/09/21 08:52:23;;;;;;;5.75;4.38;;;;;;;14.15;74.33;99553.84;5103023;28;20035;-71
2022/09/21 08:55:10;;;;;;;6.63;5.07;;;;;;;14.07;75.69;99565.47;5103342;28;20028;-71
2022/09/21 08:57:36;;;;;;;8.82;5.25;;;;;;;14.12;74.34;99559.19;5093576;28;20116;-72
2022/09/21 09:00:11;;;;;;;6.47;4.65;;;;;;;14.12;74.56;99556.56;5100987;28;20039;-73
2022/09/21 09:02:37;;;;;;;5.07;4.57;;;;;;;14.29;74.22;99562.88;5102551;28;20035;-72
2022/09/21 09:05:05;;;;;;;6.15;4.32;;;;;;;14.18;73.90;99560.69;5102765;28;20261;-72
2022/09/21 09:08:18;;;;;;;3.85;3.42;;;;;;;14.23;73.47;99544.88;5102525;28;20020;-72
2022/09/21 09:10:43;;;;;;;4.85;3.83;;;;;;;14.22;73.20;99557.03;5084903;28;20593;-71
2022/09/21 09:13:30;;;;;;;4.20;3.67;;;;;;;14.27;73.36;99560.31;5085056;28;20048;-71
2022/09/21 09:16:21;;;;;;;3.72;3.08;;;;;;;14.39;72.34;99563.38;5085035;28;20064;-72
2022/09/21 09:18:54;;;;;;;4.25;3.70;;;;;;;14.35;71.36;99548.75;5102661;28;20078;-72
2022/09/21 09:21:28;;;;;;;4.70;2.78;;;;;;;14.21;70.63;99554.50;5084854;28;20094;-71
2022/09/21 09:23:59;;;;;;;3.50;2.58;;;;;;;14.28;70.98;99551.63;5084617;28;20023;-71
2022/09/21 09:26:43;;;;;;;2.85;2.60;;;;;;;14.19;71.18;99541.53;5102549;28;20044;-69
2022/09/21 09:29:28;;;;;;;3.22;2.60;;;;;;;14.33;70.93;99526.22;5102479;28;20020;-69
2022/09/21 09:31:56;;;;;;;3.10;2.58;;;;;;;14.44;71.40;99538.00;5102586;28;20024;-70
2022/09/21 09:34:35;;;;;;;4.68;3.05;;;;;;;14.64;70.88;99535.44;5102363;28;20557;-71
2022/09/21 09:37:11;;;;;;;3.35;2.53;;;;;;;14.74;70.49;99537.69;5084549;28;20028;-71
2022/09/21 09:39:38;;;;;;;2.97;2.70;;;;;;;14.63;70.36;99554.59;5084579;28;20020;-72
2022/09/21 09:42:20;;;;;;;3.17;2.88;;;;;;;14.62;69.44;99546.84;5102278;28;20024;-70
2022/09/21 09:44:53;;;;;;;4.57;3.42;;;;;;;14.62;69.78;99534.69;5093632;28;20023;-71
2022/09/21 09:47:40;;;;;;;3.50;2.92;;;;;;;14.67;70.78;99540.53;5083969;28;20255;-71
2022/09/21 09:50:27;;;;;;;5.25;3.50;;;;;;;14.65;70.13;99544.09;5084225;28;20030;-72
2022/09/21 09:53:05;;;;;;;4.07;3.22;;;;;;;14.62;69.38;99545.09;5102718;28;20028;-71
2022/09/21 09:55:37;;;;;;;4.28;2.70;;;;;;;14.70;69.51;99543.94;5102476;28;20113;-71
2022/09/21 09:58:04;;;;;;;3.45;2.88;;;;;;;14.79;68.66;99546.16;5101479;28;20024;-71
2022/09/21 10:00:30;;;;;;;3.92;2.60;;;;;;;14.82;68.05;99538.19;5101795;28;20036;-71
2022/09/21 10:02:59;;;;;;;2.78;2.20;;;;;;;14.65;67.69;99544.09;5102034;28;20104;-71
2022/09/21 10:05:28;;;;;;;3.25;2.20;;;;;;;14.65;67.58;99549.31;5098689;28;20031;-71
2022/09/21 10:07:53;;;;;;;5.18;2.72;;;;;;;14.57;67.60;99541.78;5102011;28;20028;-71
2022/09/21 10:10:28;;;;;;;3.22;2.40;;;;;;;14.87;68.20;99544.09;5102216;28;20047;-71
2022/09/21 10:13:30;;;;;;;3.92;2.67;;;;;;;14.99;68.01;99545.31;5086977;28;20445;-71
2022/09/21 10:16:18;;;;;;;4.97;3.25;;;;;;;14.92;67.87;99544.75;5082241;28;20216;-69
2022/09/21 10:18:50;;;;;;;3.53;2.80;;;;;;;14.89;67.20;99531.81;5104684;28;20073;-70
2022/09/21 10:21:36;;;;;;;4.57;2.90;;;;;;;14.67;67.20;99531.88;5070976;28;21013;-70
2022/09/21 10:24:12;;;;;;;3.63;2.78;;;;;;;14.71;67.50;99522.16;5085526;28;20194;-71
2022/09/21 10:26:48;;;;;;;3.95;2.83;;;;;;;14.95;67.90;99533.31;5104187;28;20032;-69
2022/09/21 10:29:22;;;;;;;4.03;2.83;;;;;;;14.92;67.40;99536.94;5105497;28;20039;-70
2022/09/21 10:32:01;;;;;;;4.50;2.97;;;;;;;15.01;67.40;99523.50;5105464;28;20176;-70
2022/09/21 10:34:32;;;;;;;6.32;3.30;;;;;;;15.11;67.20;99528.31;5105379;28;20032;-71
2022/09/21 10:37:25;;;;;;;4.80;2.60;;;;;;;14.97;66.69;99529.75;5087376;28;20044;-71
2022/09/21 10:39:51;;;;;;;3.97;2.58;;;;;;;15.12;65.99;99528.25;5079020;28;20831;-70
2022/09/21 10:42:18;;;;;;;4.03;2.60;;;;;;;15.06;67.04;99533.72;5104818;28;20253;-70
2022/09/21 10:45:02;;;;;;;4.82;2.67;;;;;;;15.15;66.84;99528.13;5087028;28;20057;-70
2022/09/21 10:47:35;;;;;;;3.47;3.17;;;;;;;15.20;66.87;99522.69;5102213;28;20009;-71
2022/09/21 10:50:05;;;;;;;3.47;2.70;;;;;;;14.95;66.70;99515.06;5105007;28;20024;-71
2022/09/21 10:52:38;;;;;;;5.32;2.90;;;;;;;15.07;66.45;99529.38;5102617;28;20024;-71
2022/09/21 10:55:05;;;;;;;5.75;2.60;;;;;;;14.80;65.89;99529.59;5105030;28;20284;-71
2022/09/21 10:57:32;;;;;;;3.35;2.75;;;;;;;14.78;66.29;99518.41;5104770;28;20024;-71
2022/09/21 10:59:58;;;;;;;4.10;2.80;;;;;;;14.87;66.54;99535.44;5104806;28;20224;-71
2022/09/21 11:02:30;;;;;;;3.88;2.53;;;;;;;15.01;66.01;99530.47;5086854;28;20321;-71
2022/09/21 11:05:02;;;;;;;3.97;3.00;;;;;;;14.99;66.49;99533.16;5070068;28;20043;-72
2022/09/21 11:07:52;;;;;;;4.45;3.10;;;;;;;15.06;66.92;99517.22;5070129;28;20035;-70
2022/09/21 11:10:25;;;;;;;2.90;2.70;;;;;;;15.00;66.17;99510.50;5105106;28;20035;-71
2022/09/21 11:12:50;;;;;;;5.25;2.70;;;;;;;15.00;66.62;99526.16;5104985;28;20027;-70
2022/09/21 11:15:29;;;;;;;4.30;2.72;;;;;;;14.83;66.56;99517.28;5105108;28;20020;-71
2022/09/21 11:18:05;;;;;;;3.05;2.75;;;;;;;14.93;66.61;99527.34;5084431;28;20040;-71
2022/09/21 11:20:46;;;;;;;2.65;2.45;;;;;;;15.00;67.41;99520.94;5102171;28;20050;-71
2022/09/21 11:23:17;;;;;;;6.07;2.80;;;;;;;14.92;66.51;99512.59;5103962;28;20237;-72
2022/09/21 11:25:59;;;;;;;3.35;3.05;;;;;;;14.97;67.00;99511.50;5105086;28;20047;-71
2022/09/21 11:28:53;;;;;;;3.17;2.90;;;;;;;15.02;66.33;99524.31;5104475;28;20047;-71
2022/09/21 11:31:56;;;;;;;3.75;2.70;;;;;;;15.07;66.70;99518.94;5104996;28;20074;-71
2022/09/21 11:34:38;;;;;;;4.90;2.92;;;;;;;15.12;66.60;99522.19;5086425;28;20035;-73
2022/09/21 11:37:28;;;;;;;5.00;2.97;;;;;;;15.04;66.35;99514.69;5104608;28;20059;-71
2022/09/21 11:40:30;;;;;;;3.67;2.75;;;;;;;14.86;67.38;99512.88;5104787;28;20138;-71
2022/09/21 11:43:11;;;;;;;3.67;2.85;;;;;;;15.08;67.56;99507.56;5090172;28;20047;-72
2022/09/21 11:45:45;;;;;;;5.07;2.97;;;;;;;15.12;67.86;99498.69;5086686;28;20035;-71
2022/09/21 11:48:21;;;;;;;2.70;2.50;;;;;;;15.26;67.63;99505.94;5104368;28;20371;-72
2022/09/21 11:51:04;;;;;;;6.10;2.67;;;;;;;15.19;68.32;99484.47;5065985;28;20028;-71
2022/09/21 11:54:02;;;;;;;2.97;2.60;;;;;;;15.27;68.05;99498.03;5083159;28;20016;-73